Stations météo

réclame
Mon MeteoGroup
Grenoble le Versoud, France (7487): Température de l'air & dewpoint: 15.10.2019 20:00:00 - 21.10.2019 20:00:00 (CEST)Grenoble le Versoud, France (7487): Vitesse du vent & gusts: 15.10.2019 20:00:00 - 21.10.2019 20:00:00 (CEST)Grenoble le Versoud, France (7487): Direction du vent: 15.10.2019 20:00:00 - 21.10.2019 20:00:00 (CEST)Grenoble le Versoud, France (7487): reduced air pressure: 15.10.2019 20:00:00 - 21.10.2019 20:00:00 (CEST)Grenoble le Versoud, France (7487): Quantités de précipitations: 15.10.2019 20:00:00 - 21.10.2019 20:00:00 (CEST)
Date & Time tt [°C] td [°C] ff [km/h] ff [knt] fx [km/h] fx [knt] dd ppp [hPa] rr [mm]
21.10.2019 20:00:00 13,8 13,2 4 2 8 4 NNW 1021,5 -
21.10.2019 19:00:00 14,3 13,7 4 2 5 3 N 1021,1 0,6
21.10.2019 18:00:00 14,6 13,5 4 2 8 4 SSE 1020,3 0,2
21.10.2019 17:00:00 15,0 13,7 5 3 8 4 SE 1020,1 1,0
21.10.2019 16:00:00 15,0 14,0 4 2 9 5 SSE 1020,5 7,0
21.10.2019 15:00:00 15,1 14,5 8 4 9 5 SW 1020,2 2,0
21.10.2019 14:00:00 15,4 14,4 0 0 11 6 N 1020,0 -
21.10.2019 13:00:00 15,6 14,3 5 3 8 4 SW 1019,6 0,6
21.10.2019 12:00:00 15,3 14,0 2 1 9 5 S 1019,2 0,2
21.10.2019 11:00:00 15,4 14,6 8 4 11 6 WSW 1018,6 0,4
21.10.2019 10:00:00 15,3 14,3 0 0 9 5 N 1017,4 0,0
21.10.2019 09:00:00 14,9 14,3 2 1 8 4 S 1016,7 0,0
21.10.2019 08:00:00 14,9 14,4 5 3 8 4 E 1016,0 -
21.10.2019 07:00:00 14,7 13,9 4 2 8 4 NNE 1014,6 0,0
21.10.2019 06:00:00 15,1 14,5 4 2 8 4 NE 1014,3 0,0
21.10.2019 05:00:00 15,4 14,6 4 2 11 6 N 1014,3 0,4
21.10.2019 04:00:00 15,5 14,5 4 2 9 5 E 1014,2 0,2
21.10.2019 03:00:00 15,6 14,8 4 2 16 9 ENE 1013,3 0,0
21.10.2019 02:00:00 15,8 15,0 5 3 11 6 E 1013,2 -
21.10.2019 01:00:00 16,0 14,7 4 2 9 5 S 1012,5 3,0
21.10.2019 00:00:00 16,6 14,2 5 3 22 12 S 1010,3 0,4
20.10.2019 23:00:00 17,9 13,6 9 5 39 21 SSW 1010,5 0,2
20.10.2019 22:00:00 19,9 12,9 24 13 63 34 WSW 1009,1 0,0
20.10.2019 21:00:00 23,1 10,5 31 17 83 45 W 1007,4 0,0
20.10.2019 20:00:00 25,6 8,6 39 21 96 52 WSW 1006,1 -
20.10.2019 19:00:00 26,4 7,4 37 20 83 45 WSW 1004,7 0,0
20.10.2019 18:00:00 27,6 6,9 35 19 78 42 SSW 1003,5 0,0
20.10.2019 17:00:00 27,9 7,2 37 20 70 38 SW 1003,1 0,0
20.10.2019 16:00:00 28,7 7,8 31 17 54 29 SW 1002,5 0,0
20.10.2019 15:00:00 23,2 14,5 18 10 29 16 NE 1003,1 0,0
20.10.2019 14:00:00 22,4 15,3 16 9 29 16 NE 1003,9 -
20.10.2019 13:00:00 20,2 13,9 11 6 31 17 E 1005,0 0,0
20.10.2019 12:00:00 19,1 13,1 16 9 26 14 NE 1005,5 0,0
20.10.2019 11:00:00 17,8 12,9 18 10 31 17 NE 1006,3 0,0
20.10.2019 10:00:00 14,5 11,8 11 6 21 11 NE 1007,2 0,0
20.10.2019 09:00:00 12,9 11,0 9 5 22 12 NE 1007,2 0,0
20.10.2019 08:00:00 12,5 10,9 11 6 16 9 NE 1006,7 -
20.10.2019 07:00:00 12,7 10,9 9 5 15 8 NE 1007,0 0,0
20.10.2019 06:00:00 12,8 11,0 8 4 15 8 ENE 1007,1 0,0
20.10.2019 05:00:00 12,8 11,2 5 3 15 8 E 1007,1 -
20.10.2019 04:00:00 12,8 11,4 9 5 16 9 NE 1006,8 0,0
20.10.2019 03:00:00 13,0 11,7 8 4 16 9 NE 1007,0 0,0
20.10.2019 02:00:00 13,3 12,4 8 4 16 9 NE 1007,0 -
20.10.2019 01:00:00 13,6 12,5 11 6 15 8 ENE 1007,0 0,0
20.10.2019 00:00:00 14,3 13,0 5 3 16 9 ENE 1007,4 0,0
19.10.2019 23:00:00 15,0 13,2 8 4 22 12 ENE 1007,4 0,0
19.10.2019 22:00:00 15,4 13,6 11 6 18 10 NE 1007,3 0,0
19.10.2019 21:00:00 16,1 13,6 13 7 24 13 NE 1007,3 0,0
19.10.2019 20:00:00 17,9 13,0 5 3 21 11 ENE 1006,8 -
19.10.2019 19:00:00 19,9 12,2 9 5 41 22 SW 1006,0 0,0
19.10.2019 18:00:00 22,2 12,2 24 13 44 24 WSW 1005,9 0,0
19.10.2019 17:00:00 23,6 11,0 26 14 48 26 WSW 1005,2 0,0
19.10.2019 16:00:00 20,6 16,0 5 3 15 8 E 1005,5 0,0
19.10.2019 15:00:00 19,2 15,1 5 3 15 8 NNE 1005,9 0,0
19.10.2019 14:00:00 18,8 14,9 4 2 11 6 E 1006,9 -
19.10.2019 13:00:00 18,1 14,0 8 4 18 10 ENE 1008,5 0,0
19.10.2019 12:00:00 16,9 14,4 5 3 13 7 ENE 1009,8 0,0
19.10.2019 11:00:00 16,1 14,3 4 2 13 7 E 1010,0 0,0
19.10.2019 10:00:00 14,3 13,2 5 3 13 7 NNW 1010,9 0,0
19.10.2019 09:00:00 13,9 12,9 4 2 16 9 NNE 1011,2 0,0
19.10.2019 08:00:00 13,8 13,2 5 3 13 7 ENE 1011,2 -
19.10.2019 07:00:00 13,7 13,2 9 5 16 9 NE 1011,2 2,0
19.10.2019 06:00:00 13,7 13,2 4 2 24 13 NE 1011,5 4,0
19.10.2019 05:00:00 13,5 13,0 0 0 8 4 N 1011,0 0,8
19.10.2019 04:00:00 13,5 13,0 4 2 8 4 NE 1011,3 0,0
19.10.2019 03:00:00 13,7 13,1 0 0 8 4 N 1011,8 0,4
19.10.2019 02:00:00 13,6 13,0 4 2 8 4 N 1012,4 -
19.10.2019 01:00:00 13,5 12,7 2 1 5 3 NE 1012,0 0,0
19.10.2019 00:00:00 13,7 12,9 5 3 11 6 NE 1012,5 0,0
18.10.2019 23:00:00 13,7 13,1 4 2 8 4 E 1013,1 0,0
18.10.2019 22:00:00 14,0 13,4 2 1 5 3 SE 1013,6 0,0
18.10.2019 21:00:00 14,4 13,3 2 1 5 3 S 1013,3 0,0
18.10.2019 20:00:00 14,8 13,8 5 3 8 4 NE 1013,6 -
18.10.2019 19:00:00 15,5 14,0 2 1 9 5 ESE 1013,2 0,0
18.10.2019 18:00:00 16,4 14,1 5 3 13 7 ESE 1013,4 0,8
18.10.2019 17:00:00 18,5 13,8 4 2 8 4 SSE 1013,1 0,0
18.10.2019 16:00:00 20,4 12,4 4 2 8 4 ESE 1012,9 0,0
18.10.2019 15:00:00 20,4 11,9 5 3 9 5 ESE 1013,1 0,0
18.10.2019 14:00:00 20,1 12,8 2 1 9 5 NNE 1014,0 -
18.10.2019 13:00:00 16,3 14,0 5 3 8 4 NNE 1015,5 0,0
18.10.2019 12:00:00 15,2 13,2 5 3 13 7 NNE 1016,1 0,0
18.10.2019 11:00:00 14,5 12,9 5 3 13 7 ENE 1016,1 0,0
18.10.2019 10:00:00 13,8 12,5 8 4 11 6 ENE 1016,1 0,0
18.10.2019 09:00:00 12,9 12,0 5 3 13 7 E 1015,5 0,0
18.10.2019 08:00:00 12,3 11,5 5 3 11 6 NNE 1015,2 -
18.10.2019 07:00:00 12,4 11,8 5 3 15 8 NE 1014,8 0,0
18.10.2019 06:00:00 11,9 11,3 4 2 15 8 ENE 1015,1 0,0
18.10.2019 05:00:00 10,9 10,4 2 1 8 4 N 1016,1 0,0
18.10.2019 04:00:00 12,3 11,5 4 2 11 6 NE 1016,0 0,0
18.10.2019 03:00:00 13,2 12,4 5 3 8 4 NE 1016,4 0,0
18.10.2019 02:00:00 13,0 11,9 0 0 11 6 N 1016,7 -
18.10.2019 01:00:00 14,4 12,9 8 4 11 6 NE 1016,7 0,2
18.10.2019 00:00:00 15,1 12,6 5 3 11 6 NE 1017,2 0,2
17.10.2019 23:00:00 15,5 12,6 5 3 15 8 ENE 1017,0 0,0
17.10.2019 22:00:00 16,0 12,4 8 4 13 7 ENE 1016,5 0,0
17.10.2019 21:00:00 16,6 11,9 8 4 13 7 ENE 1015,9 0,0
17.10.2019 20:00:00 16,7 11,8 5 3 13 7 E 1015,6 -
17.10.2019 19:00:00 17,7 11,5 4 2 15 8 NNW 1015,1 0,0
17.10.2019 18:00:00 19,6 9,8 4 2 28 15 S 1014,9 0,0
17.10.2019 17:00:00 20,5 10,3 5 3 31 17 SSW 1014,3 0,0
17.10.2019 16:00:00 22,2 9,4 5 3 13 7 ESE 1013,9 0,0
17.10.2019 15:00:00 20,8 11,7 5 3 18 10 E 1014,0 0,0
17.10.2019 14:00:00 19,5 11,5 9 5 16 9 ENE 1014,6 -
17.10.2019 13:00:00 17,9 10,0 11 6 16 9 NE 1015,4 0,0
17.10.2019 12:00:00 16,5 10,3 5 3 13 7 ENE 1016,4 0,0
17.10.2019 11:00:00 13,7 9,9 8 4 13 7 ENE 1017,1 0,0
17.10.2019 10:00:00 11,2 9,5 5 3 13 7 NE 1018,0 0,0
17.10.2019 09:00:00 8,9 8,0 4 2 9 5 ENE 1018,2 0,0
17.10.2019 08:00:00 8,8 8,2 5 3 11 6 E 1017,6 -
17.10.2019 07:00:00 8,2 7,4 2 1 9 5 E 1017,6 0,0
17.10.2019 06:00:00 9,1 7,9 4 2 13 7 ENE 1017,9 0,0
17.10.2019 05:00:00 9,4 8,0 5 3 13 7 NE 1017,8 0,0
17.10.2019 04:00:00 10,1 8,7 8 4 13 7 ENE 1018,0 0,0
17.10.2019 03:00:00 10,3 9,1 9 5 13 7 NE 1018,1 0,0
17.10.2019 02:00:00 9,9 9,0 4 2 8 4 NE 1017,7 -
17.10.2019 01:00:00 10,2 9,3 4 2 9 5 E 1017,7 0,0
17.10.2019 00:00:00 9,7 9,1 4 2 5 3 NNE 1018,0 0,0
16.10.2019 23:00:00 10,1 9,2 4 2 8 4 ESE 1017,9 0,0
16.10.2019 22:00:00 9,4 8,2 4 2 5 3 NE 1017,2 0,0
16.10.2019 21:00:00 10,7 9,5 2 1 5 3 NNE 1016,8 0,0
16.10.2019 20:00:00 12,1 9,8 0 0 5 3 N 1016,3 -
16.10.2019 19:00:00 13,4 9,6 0 0 8 4 N 1015,5 0,0
16.10.2019 18:00:00 16,3 10,2 2 1 8 4 SE 1014,7 0,0
16.10.2019 17:00:00 18,7 8,1 0 0 11 6 N 1014,8 0,0
16.10.2019 16:00:00 19,3 7,4 2 1 8 4 W 1015,5 0,0
16.10.2019 15:00:00 18,0 7,4 4 2 11 6 SSW 1016,1 0,0
16.10.2019 14:00:00 17,0 7,9 2 1 8 4 NE 1017,0 -
16.10.2019 13:00:00 15,3 8,1 4 2 8 4 SE 1018,1 0,0
16.10.2019 12:00:00 13,5 8,3 2 1 8 4 E 1019,2 0,0
16.10.2019 11:00:00 11,4 8,8 2 1 5 3 S 1019,8 0,0
16.10.2019 10:00:00 8,9 8,8 0 0 4 2 N 1020,2 0,0
16.10.2019 09:00:00 6,3 6,2 0 0 8 4 N 1020,9 0,0
16.10.2019 08:00:00 6,8 6,5 0 0 5 3 N 1020,2 -
16.10.2019 07:00:00 6,5 6,2 0 0 8 4 N 1020,4 0,0
16.10.2019 06:00:00 6,8 6,5 5 3 8 4 ENE 1019,9 0,0
16.10.2019 05:00:00 7,7 6,9 2 1 8 4 SE 1019,9 0,0
16.10.2019 04:00:00 8,1 7,8 4 2 5 3 NNW 1019,8 0,0
16.10.2019 03:00:00 8,9 8,6 2 1 5 3 E 1019,4 0,0
16.10.2019 02:00:00 9,0 8,7 0 0 5 3 N 1019,6 -
16.10.2019 01:00:00 9,4 8,8 4 2 8 4 ENE 1019,4 0,0
16.10.2019 00:00:00 10,1 9,8 4 2 8 4 WNW 1019,4 0,0
15.10.2019 23:00:00 10,3 9,7 2 1 5 3 SW 1019,0 0,0
15.10.2019 22:00:00 11,4 10,6 4 2 8 4 E 1018,5 0,0
15.10.2019 21:00:00 11,5 10,7 4 2 8 4 ENE 1018,2 0,8
15.10.2019 20:00:00 11,8 10,5 5 3 16 9 ENE 1017,5 -

tt = Température de l'air
td = dewpoint
ff = Vitesse du vent
fx = gusts
dd = Direction du vent
ppp = reduced air pressure
rr = Quantités de précipitations

stations d'obs. à proximité